Terminal Aerodrome Forecast
Issued by NWS La Crosse, WI

Home | Current Version | Previous Version | Text Only | Print | Product List | Glossary On
Versions: 1 2 3 4 5 6 7 8 9 10 11 12 13 14 15 16 17 18
000
FTUS43 KARX 282330
TAFRST
TAF
KRST 282330Z 2900/2924 03008KT P6SM VCSH OVC020
      TEMPO 2900/2901 5SM -RA SCT010 OVC012
     FM290200 03006KT P6SM SCT025 OVC035
     FM291000 03006KT P6SM SCT028
     FM291700 03007KT P6SM BKN035=

USA.gov is the U.S. government's official web portal to all federal, state and local government web resources and services.